Time;durP1;ratioP1;P1;durP2;ratioP2;P2;SDS_P1;SDS_P2;PMS_P1;PMS_P2;Temp;Humidity;BMP_temperature;BMP_pressure;BME280_temperature;BME280_humidity;BME280_pressure;Samples;Min_cycle;Max_cycle;Signal;HPM_P1;HPM_P2
2023/06/09 00:00:21;;;;;;;4.15;3.75;;;;;;;13.58;100.00;97458.66;1700824;75;727271;-72
2023/06/09 00:02:51;;;;;;;3.10;2.60;;;;;;;13.54;100.00;97460.94;1710236;75;677135;-74
2023/06/09 00:05:23;;;;;;;2.60;2.40;;;;;;;13.58;100.00;97455.19;1698462;75;897420;-73
2023/06/09 00:07:55;;;;;;;2.50;2.30;;;;;;;13.51;100.00;97458.44;1707054;75;934944;-73
2023/06/09 00:10:28;;;;;;;1.90;1.75;;;;;;;13.55;100.00;97458.94;1701392;75;745975;-74
2023/06/09 00:12:59;;;;;;;1.70;1.60;;;;;;;13.56;100.00;97450.16;1710515;75;672808;-72
2023/06/09 00:15:29;;;;;;;2.10;1.90;;;;;;;13.45;100.00;97452.94;1698597;75;882489;-74
2023/06/09 00:18:02;;;;;;;2.15;1.95;;;;;;;13.42;100.00;97459.41;1706492;75;913710;-72
2023/06/09 00:20:33;;;;;;;1.80;1.70;;;;;;;13.41;100.00;97457.94;1697877;75;955568;-74
2023/06/09 00:23:04;;;;;;;2.00;1.80;;;;;;;13.37;100.00;97451.91;1709854;75;677479;-74
2023/06/09 00:25:37;;;;;;;1.70;1.60;;;;;;;13.31;100.00;97456.69;1699793;75;795759;-72
2023/06/09 00:28:09;;;;;;;1.90;1.70;;;;;;;13.29;100.00;97446.19;1707247;75;962245;-73
2023/06/09 00:30:39;;;;;;;1.80;1.70;;;;;;;13.25;100.00;97445.63;1700921;75;752770;-73
2023/06/09 00:33:09;;;;;;;1.60;1.50;;;;;;;13.26;100.00;97438.16;1710558;75;671032;-73
2023/06/09 00:35:40;;;;;;;2.40;1.60;;;;;;;13.21;100.00;97434.91;1688418;75;1759084;-74
2023/06/09 00:38:10;;;;;;;1.60;1.50;;;;;;;13.26;100.00;97430.66;1710043;75;674469;-75
2023/06/09 00:40:43;;;;;;;1.60;1.50;;;;;;;13.24;100.00;97426.91;1701565;75;736568;-75
2023/06/09 00:43:13;;;;;;;1.20;1.10;;;;;;;13.15;100.00;97428.63;1710017;75;671481;-74
2023/06/09 00:45:43;;;;;;;1.60;1.50;;;;;;;13.20;100.00;97425.16;1688198;75;1696649;-73
2023/06/09 00:48:14;;;;;;;1.75;1.50;;;;;;;13.13;100.00;97427.63;1710592;75;673946;-73
2023/06/09 00:50:45;;;;;;;1.70;1.60;;;;;;;13.16;100.00;97418.41;1698628;75;967008;-75
2023/06/09 00:53:16;;;;;;;1.70;1.60;;;;;;;13.18;100.00;97413.91;1709426;75;710894;-72
2023/06/09 00:55:49;;;;;;;1.45;1.35;;;;;;;13.18;100.00;97415.91;1700438;75;753067;-74
2023/06/09 00:58:21;;;;;;;1.50;1.40;;;;;;;13.14;100.00;97410.66;1709585;75;688329;-75
2023/06/09 01:00:51;;;;;;;1.50;1.40;;;;;;;13.16;100.00;97405.41;1701553;75;729147;-73
2023/06/09 01:03:22;;;;;;;1.20;1.10;;;;;;;13.18;100.00;97402.94;1709451;75;690564;-72
2023/06/09 01:05:59;;;;;;;1.35;1.25;;;;;;;13.18;100.00;97408.41;1700821;75;749835;-72
2023/06/09 01:08:37;;;;;;;1.50;1.40;;;;;;;13.18;100.00;97402.94;1702493;75;715291;-71
2023/06/09 01:11:22;;;;;;;1.10;1.00;;;;;;;13.12;100.00;97398.66;1710143;75;674119;-77
2023/06/09 01:14:02;;;;;;;1.50;1.40;;;;;;;13.16;100.00;97404.69;1701482;75;738223;-71
2023/06/09 01:16:47;;;;;;;1.25;1.15;;;;;;;13.03;100.00;97404.41;1701466;75;683744;-73
2023/06/09 01:19:32;;;;;;;1.90;1.80;;;;;;;12.98;100.00;97401.16;1710962;75;674707;-71
2023/06/09 01:22:09;;;;;;;1.50;1.40;;;;;;;13.07;100.00;97399.41;1700770;75;763577;-72
2023/06/09 01:24:55;;;;;;;1.50;1.40;;;;;;;13.11;100.00;97395.19;1699727;75;855587;-73
2023/06/09 01:27:29;;;;;;;1.50;1.40;;;;;;;13.07;100.00;97389.16;1710046;75;677683;-71
2023/06/09 01:30:01;;;;;;;1.40;1.30;;;;;;;13.04;100.00;97390.19;1701824;75;681857;-73
2023/06/09 01:32:32;;;;;;;1.70;1.60;;;;;;;13.09;100.00;97389.44;1710142;75;706976;-74
2023/06/09 01:35:04;;;;;;;1.30;1.20;;;;;;;13.07;100.00;97386.41;1700982;75;745369;-74
2023/06/09 01:37:34;;;;;;;2.10;1.90;;;;;;;12.97;100.00;97383.16;1707038;75;926880;-72
2023/06/09 01:40:05;;;;;;;1.75;1.65;;;;;;;12.99;100.00;97374.44;1699751;75;836754;-75
2023/06/09 01:42:38;;;;;;;2.20;1.90;;;;;;;13.06;100.00;97378.66;1709842;75;673662;-72
2023/06/09 01:45:12;;;;;;;2.00;1.80;;;;;;;13.04;100.00;97370.19;1700702;75;734670;-74
2023/06/09 01:47:42;;;;;;;1.50;1.40;;;;;;;13.06;100.00;97376.69;1709843;75;679488;-72
2023/06/09 01:50:21;;;;;;;1.50;1.40;;;;;;;12.98;100.00;97370.91;1701804;75;756357;-75
2023/06/09 01:52:56;;;;;;;1.80;1.60;;;;;;;13.00;100.00;97365.69;1702060;75;719757;-71
2023/06/09 01:55:35;;;;;;;3.70;1.30;;;;;;;13.01;100.00;97360.94;1710400;75;679892;-72
2023/06/09 01:58:16;;;;;;;1.30;1.20;;;;;;;12.99;100.00;97355.94;1702963;75;673042;-70
2023/06/09 02:00:51;;;;;;;1.20;1.10;;;;;;;12.93;100.00;97357.94;1710908;75;677872;-72
2023/06/09 02:03:25;;;;;;;1.25;1.15;;;;;;;12.93;100.00;97351.69;1703135;75;745749;-72
2023/06/09 02:05:58;;;;;;;0.90;0.90;;;;;;;12.92;100.00;97353.69;1709037;75;813952;-70
2023/06/09 02:08:28;;;;;;;3.30;1.30;;;;;;;12.77;100.00;97356.69;1686929;75;1965894;-72
2023/06/09 02:10:58;;;;;;;2.60;1.10;;;;;;;12.76;100.00;97352.41;1710448;75;679552;-71
2023/06/09 02:13:31;;;;;;;1.35;1.10;;;;;;;12.76;100.00;97346.19;1701293;75;764549;-71
2023/06/09 02:16:02;;;;;;;0.80;0.80;;;;;;;12.81;100.00;97347.44;1709787;75;682998;-73
2023/06/09 02:18:32;;;;;;;0.70;0.70;;;;;;;12.79;100.00;97351.44;1701038;75;762023;-72
2023/06/09 02:21:03;;;;;;;1.30;0.90;;;;;;;12.69;100.00;97347.41;1706905;75;926662;-76
2023/06/09 02:23:33;;;;;;;0.80;0.80;;;;;;;12.66;100.00;97356.66;1700705;75;755618;-75
2023/06/09 02:26:03;;;;;;;0.80;0.80;;;;;;;12.69;100.00;97349.41;1708665;75;697052;-71
2023/06/09 02:28:36;;;;;;;0.70;0.70;;;;;;;12.61;100.00;97349.16;1701242;75;738265;-72
2023/06/09 02:31:06;;;;;;;0.80;0.70;;;;;;;12.60;100.00;97344.91;1696397;75;1845996;-71
2023/06/09 02:33:37;;;;;;;0.60;0.60;;;;;;;12.54;100.00;97342.16;1700800;75;759904;-71
2023/06/09 02:36:07;;;;;;;0.60;0.60;;;;;;;12.49;100.00;97342.91;1706300;75;969561;-70
2023/06/09 02:38:37;;;;;;;0.60;0.60;;;;;;;12.43;100.00;97336.63;1697980;75;975804;-72
2023/06/09 02:41:08;;;;;;;0.60;0.60;;;;;;;12.40;100.00;97336.91;1709675;75;677770;-73
2023/06/09 02:43:41;;;;;;;0.50;0.50;;;;;;;12.42;100.00;97335.16;1701107;75;759046;-72
2023/06/09 02:46:12;;;;;;;0.60;0.60;;;;;;;12.34;100.00;97332.16;1709589;75;686007;-72
2023/06/09 02:48:42;;;;;;;0.60;0.60;;;;;;;12.28;100.00;97334.09;1700937;75;759385;-72
2023/06/09 02:51:13;;;;;;;0.60;0.60;;;;;;;12.23;100.00;97345.09;1710512;75;675092;-71
2023/06/09 02:53:43;;;;;;;0.60;0.60;;;;;;;12.25;100.00;97343.34;1700920;75;731941;-72
2023/06/09 02:56:14;;;;;;;0.65;0.65;;;;;;;12.18;100.00;97351.31;1696332;75;1857114;-71
2023/06/09 02:58:48;;;;;;;0.50;0.50;;;;;;;12.18;100.00;97354.78;1701793;75;760129;-73
2023/06/09 03:01:19;;;;;;;0.50;0.50;;;;;;;12.13;100.00;97355.53;1709893;75;767933;-73
2023/06/09 03:03:49;;;;;;;0.50;0.50;;;;;;;12.01;100.00;97357.47;1702208;75;766135;-71
2023/06/09 03:06:20;;;;;;;0.60;0.60;;;;;;;12.03;100.00;97357.00;1711337;75;683507;-72
2023/06/09 03:08:50;;;;;;;0.40;0.40;;;;;;;11.99;100.00;97361.94;1703953;75;729964;-75
2023/06/09 03:11:21;;;;;;;0.70;0.70;;;;;;;11.99;100.00;97357.22;1711464;75;754950;-73
2023/06/09 03:13:53;;;;;;;1.20;1.10;;;;;;;11.87;100.00;97370.13;1702652;75;751290;-72
2023/06/09 03:16:24;;;;;;;2.30;1.50;;;;;;;11.84;100.00;97373.09;1710066;75;677673;-72
2023/06/09 03:18:54;;;;;;;1.20;1.10;;;;;;;11.99;100.00;97375.66;1686217;75;1948243;-76
2023/06/09 03:21:25;;;;;;;0.90;0.90;;;;;;;11.95;100.00;97370.41;1710802;75;688775;-71
2023/06/09 03:23:56;;;;;;;0.90;0.90;;;;;;;11.91;100.00;97381.63;1700390;75;759741;-72
2023/06/09 03:26:28;;;;;;;0.85;0.85;;;;;;;11.93;100.00;97381.13;1708221;75;810629;-70
2023/06/09 03:29:01;;;;;;;0.80;0.80;;;;;;;11.92;100.00;97383.13;1701663;75;757050;-74
2023/06/09 03:31:31;;;;;;;1.00;0.90;;;;;;;11.92;100.00;97371.41;1707560;75;895834;-74
2023/06/09 03:34:01;;;;;;;0.95;0.85;;;;;;;11.91;100.00;97378.88;1702046;75;732108;-73
2023/06/09 03:36:33;;;;;;;0.90;0.90;;;;;;;11.96;100.00;97382.91;1710249;75;675300;-73
2023/06/09 03:39:03;;;;;;;0.75;0.75;;;;;;;11.96;100.00;97382.16;1700963;75;754031;-73
2023/06/09 03:41:33;;;;;;;1.10;1.00;;;;;;;11.96;100.00;97374.66;1707273;75;896342;-72
2023/06/09 03:44:07;;;;;;;1.00;0.95;;;;;;;12.03;100.00;97395.41;1701939;75;772860;-75
2023/06/09 03:46:37;;;;;;;1.10;1.00;;;;;;;12.07;100.00;97398.63;1710538;75;676526;-72
2023/06/09 03:49:07;;;;;;;1.50;1.40;;;;;;;12.06;100.00;97402.63;1701497;75;744882;-71
2023/06/09 03:51:37;;;;;;;2.75;1.25;;;;;;;12.06;100.00;97392.41;1696271;75;1870478;-72
2023/06/09 03:54:08;;;;;;;2.55;1.30;;;;;;;12.11;100.00;97412.88;1700096;75;820043;-72
2023/06/09 03:56:39;;;;;;;1.40;1.20;;;;;;;12.09;100.00;97404.41;1709550;75;684844;-72
2023/06/09 03:59:12;;;;;;;1.00;1.00;;;;;;;12.13;100.00;97405.66;1700253;75;866216;-72
2023/06/09 04:01:43;;;;;;;0.95;0.95;;;;;;;12.15;100.00;97418.91;1710586;75;677763;-70
2023/06/09 04:04:14;;;;;;;0.70;0.70;;;;;;;12.19;100.00;97419.41;1701539;75;753093;-73
2023/06/09 04:06:45;;;;;;;0.75;0.75;;;;;;;12.20;100.00;97423.66;1708746;75;850330;-73
2023/06/09 04:09:15;;;;;;;0.60;0.60;;;;;;;12.17;100.00;97418.38;1698279;75;940958;-73
2023/06/09 04:11:46;;;;;;;0.80;0.80;;;;;;;12.17;100.00;97426.63;1707759;75;977832;-72
2023/06/09 04:14:19;;;;;;;0.60;0.60;;;;;;;12.20;100.00;97420.19;1701162;75;737853;-70
2023/06/09 04:16:50;;;;;;;0.60;0.60;;;;;;;12.22;100.00;97423.16;1709227;75;768419;-71
2023/06/09 04:19:21;;;;;;;0.70;0.70;;;;;;;12.17;100.00;97416.41;1702353;75;736964;-72
2023/06/09 04:21:53;;;;;;;1.00;1.00;;;;;;;12.07;100.00;97415.84;1710224;75;685254;-70
2023/06/09 04:24:23;;;;;;;1.20;1.00;;;;;;;12.12;100.00;97425.34;1701390;75;730783;-75
2023/06/09 04:26:53;;;;;;;0.80;0.80;;;;;;;12.16;100.00;97428.63;1709770;75;708465;-71
2023/06/09 04:29:26;;;;;;;1.20;1.10;;;;;;;12.15;100.00;97424.38;1701727;75;731906;-73
2023/06/09 04:31:58;;;;;;;1.50;1.40;;;;;;;12.09;100.00;97429.09;1710619;75;720695;-73
2023/06/09 04:34:38;;;;;;;1.90;1.80;;;;;;;12.11;100.00;97427.34;1702014;75;755393;-71
2023/06/09 04:37:09;;;;;;;2.20;2.00;;;;;;;12.25;100.00;97433.16;1701803;75;710871;-70
2023/06/09 04:39:41;;;;;;;1.40;1.30;;;;;;;12.27;100.00;97430.69;1696114;75;1945493;-71
2023/06/09 04:42:11;;;;;;;1.70;1.60;;;;;;;12.30;100.00;97435.19;1701459;75;756179;-73
2023/06/09 04:44:44;;;;;;;1.50;1.20;;;;;;;12.41;100.00;97428.97;1710590;75;672777;-74
2023/06/09 04:47:17;;;;;;;1.30;1.20;;;;;;;12.35;100.00;97434.44;1702083;75;674968;-75
2023/06/09 04:49:49;;;;;;;2.10;1.90;;;;;;;12.41;100.00;97435.25;1708076;75;899206;-74
2023/06/09 04:52:20;;;;;;;1.80;1.70;;;;;;;12.49;100.00;97433.50;1702023;75;675861;-73
2023/06/09 04:54:52;;;;;;;1.90;1.80;;;;;;;12.48;100.00;97434.75;1710234;75;681752;-77
2023/06/09 04:57:22;;;;;;;1.80;1.60;;;;;;;12.56;100.00;97437.78;1701626;75;687966;-71
2023/06/09 04:59:55;;;;;;;1.35;1.25;;;;;;;12.66;100.00;97441.06;1709756;75;776457;-72
2023/06/09 05:02:25;;;;;;;1.50;1.40;;;;;;;12.68;100.00;97444.81;1700834;75;735844;-71
2023/06/09 05:04:56;;;;;;;2.20;2.00;;;;;;;12.70;100.00;97442.31;1710144;75;678294;-75
2023/06/09 05:07:26;;;;;;;2.05;1.85;;;;;;;12.83;100.00;97441.84;1702031;75;672443;-72
2023/06/09 05:09:56;;;;;;;2.50;2.30;;;;;;;12.88;100.00;97437.59;1710239;75;670484;-72
2023/06/09 05:12:26;;;;;;;2.40;2.20;;;;;;;12.95;100.00;97446.09;1689754;75;1782390;-70
2023/06/09 05:14:59;;;;;;;3.20;2.90;;;;;;;12.98;100.00;97444.38;1708101;75;896050;-72
2023/06/09 05:17:30;;;;;;;3.55;3.25;;;;;;;13.05;100.00;97443.88;1676696;75;2718060;-76
2023/06/09 05:20:05;;;;;;;3.20;2.90;;;;;;;13.20;100.00;97443.63;1710482;75;676369;-72
2023/06/09 05:22:35;;;;;;;3.80;3.40;;;;;;;13.25;100.00;97440.13;1701569;75;718973;-70
2023/06/09 05:25:06;;;;;;;4.45;4.05;;;;;;;13.28;100.00;97447.44;1710269;75;687193;-72
2023/06/09 05:27:36;;;;;;;5.35;4.85;;;;;;;13.38;100.00;97448.69;1701548;75;756089;-73
2023/06/09 05:30:10;;;;;;;4.35;3.95;;;;;;;13.45;100.00;97446.69;1710447;75;678872;-72
2023/06/09 05:32:40;;;;;;;6.10;5.50;;;;;;;13.39;100.00;97446.69;1698068;75;937837;-73
2023/06/09 05:35:11;;;;;;;4.70;4.15;;;;;;;13.60;100.00;97436.19;1696179;75;1895395;-73
2023/06/09 05:37:51;;;;;;;4.65;4.25;;;;;;;13.55;100.00;97440.44;1701429;75;728735;-72
2023/06/09 05:40:21;;;;;;;4.00;3.60;;;;;;;13.71;100.00;97443.66;1700243;75;849254;-75
2023/06/09 05:42:52;;;;;;;4.50;4.10;;;;;;;13.78;100.00;97448.66;1709845;75;678097;-73
2023/06/09 05:45:28;;;;;;;6.25;4.90;;;;;;;13.78;100.00;97449.41;1700913;75;788601;-72
2023/06/09 05:47:58;;;;;;;5.50;5.00;;;;;;;13.93;100.00;97451.91;1710067;75;673435;-71
2023/06/09 05:50:28;;;;;;;6.50;5.90;;;;;;;14.04;100.00;97448.34;1700995;75;726737;-72
2023/06/09 05:52:58;;;;;;;5.70;5.10;;;;;;;14.21;100.00;97451.06;1706565;75;766638;-72
2023/06/09 05:55:28;;;;;;;7.30;6.60;;;;;;;14.24;100.00;97452.81;1701354;75;674471;-73
2023/06/09 05:58:00;;;;;;;7.00;6.30;;;;;;;14.32;100.00;97469.56;1709130;75;703181;-73
2023/06/09 06:00:33;;;;;;;8.20;7.40;;;;;;;14.29;100.00;97460.31;1701730;75;683406;-74
2023/06/09 06:03:06;;;;;;;5.90;5.40;;;;;;;14.45;100.00;97458.75;1706954;75;944862;-74
2023/06/09 06:05:36;;;;;;;6.75;6.15;;;;;;;14.47;100.00;97468.00;1701415;75;674471;-72
2023/06/09 06:08:07;;;;;;;8.25;7.35;;;;;;;14.43;100.00;97464.78;1709658;75;738744;-71
2023/06/09 06:10:37;;;;;;;8.90;8.00;;;;;;;14.48;100.00;97460.50;1699119;75;1009348;-71
2023/06/09 06:13:08;;;;;;;10.15;9.15;;;;;;;14.47;100.00;97464.50;1709283;75;833521;-72
2023/06/09 06:15:41;;;;;;;14.00;12.70;;;;;;;14.45;100.00;97469.75;1687307;75;1963385;-73
2023/06/09 06:18:11;;;;;;;13.60;12.30;;;;;;;14.65;100.00;97465.97;1709714;75;770838;-72
2023/06/09 06:20:42;;;;;;;13.75;12.35;;;;;;;14.83;100.00;97468.13;1702124;75;751069;-73
2023/06/09 06:23:13;;;;;;;14.25;12.85;;;;;;;14.95;100.00;97473.56;1709691;75;673981;-73
2023/06/09 06:25:43;;;;;;;12.95;11.35;;;;;;;15.02;100.00;97482.03;1699748;75;752360;-75
2023/06/09 06:28:14;;;;;;;14.80;13.40;;;;;;;14.98;100.00;97472.56;1709657;75;676596;-74
2023/06/09 06:30:47;;;;;;;14.50;12.90;;;;;;;14.94;100.00;97470.06;1699864;75;777385;-70
2023/06/09 06:33:18;;;;;;;12.00;10.80;;;;;;;15.12;100.00;97465.94;1709707;75;671887;-72
2023/06/09 06:35:50;;;;;;;12.15;11.05;;;;;;;15.14;100.00;97474.47;1699837;75;753550;-72
2023/06/09 06:38:20;;;;;;;11.30;10.20;;;;;;;15.11;100.00;97476.22;1709560;75;673894;-71
2023/06/09 06:40:51;;;;;;;11.00;9.80;;;;;;;15.28;100.00;97470.59;1699533;75;806724;-71
2023/06/09 06:43:21;;;;;;;12.00;10.80;;;;;;;15.33;100.00;97466.31;1708294;75;832637;-74
2023/06/09 06:45:54;;;;;;;11.95;10.25;;;;;;;15.32;100.00;97467.56;1699977;75;749047;-72
2023/06/09 06:48:24;;;;;;;11.85;10.75;;;;;;;15.28;100.00;97467.84;1708906;75;778486;-71
2023/06/09 06:50:54;;;;;;;11.85;10.65;;;;;;;15.47;100.00;97481.00;1688827;75;1702964;-72
2023/06/09 06:53:24;;;;;;;13.45;11.70;;;;;;;15.37;100.00;97471.53;1709401;75;673086;-70
2023/06/09 06:55:55;;;;;;;10.25;9.25;;;;;;;15.48;100.00;97474.22;1699540;75;746204;-72
2023/06/09 06:58:27;;;;;;;11.30;10.20;;;;;;;15.46;100.00;97474.72;1694370;75;1854445;-72
2023/06/09 07:01:00;;;;;;;11.70;10.50;;;;;;;15.54;100.00;97474.94;1699133;75;840599;-70
2023/06/09 07:03:33;;;;;;;11.00;9.90;;;;;;;15.69;100.00;97474.56;1710091;75;672432;-72
2023/06/09 07:06:03;;;;;;;10.65;9.65;;;;;;;15.82;100.00;97479.50;1700171;75;751936;-69
2023/06/09 07:08:33;;;;;;;11.10;10.00;;;;;;;15.83;100.00;97470.69;1709240;75;765592;-72
2023/06/09 07:11:04;;;;;;;10.15;8.45;;;;;;;16.00;100.00;97470.53;1701004;75;744999;-71
2023/06/09 07:13:34;;;;;;;10.35;9.35;;;;;;;16.00;100.00;97473.31;1709491;75;676683;-71
2023/06/09 07:16:10;;;;;;;9.80;8.80;;;;;;;16.13;100.00;97470.63;1674921;75;2891286;-74
2023/06/09 07:18:40;;;;;;;8.50;7.70;;;;;;;16.31;100.00;97471.22;1701446;75;680170;-69
2023/06/09 07:21:11;;;;;;;11.00;9.90;;;;;;;16.27;100.00;97465.97;1706943;75;986211;-73
2023/06/09 07:23:41;;;;;;;7.80;7.00;;;;;;;16.40;100.00;97471.63;1703029;75;684556;-69
2023/06/09 07:26:13;;;;;;;8.60;7.70;;;;;;;16.66;100.00;97459.25;1710669;75;667234;-72
2023/06/09 07:28:44;;;;;;;9.50;8.50;;;;;;;16.69;100.00;97469.28;1702476;75;682893;-69
2023/06/09 07:31:16;;;;;;;6.60;6.00;;;;;;;16.97;100.00;97465.41;1708606;75;866458;-71
2023/06/09 07:33:47;;;;;;;6.90;6.20;;;;;;;17.04;100.00;97457.25;1700257;75;909726;-73
2023/06/09 07:36:17;;;;;;;8.10;7.30;;;;;;;17.00;100.00;97456.81;1709733;75;810391;-73
2023/06/09 07:38:47;;;;;;;8.05;7.25;;;;;;;17.28;100.00;97455.66;1703776;75;706042;-71
2023/06/09 07:41:17;;;;;;;11.00;6.90;;;;;;;17.32;100.00;97458.09;1712026;75;681342;-76
2023/06/09 07:43:48;;;;;;;6.20;5.50;;;;;;;17.45;100.00;97450.59;1703625;75;678632;-70
2023/06/09 07:46:21;;;;;;;6.95;6.25;;;;;;;17.40;100.00;97448.66;1709437;75;677789;-72
2023/06/09 07:48:51;;;;;;;6.20;5.60;;;;;;;17.79;100.00;97444.50;1699822;75;894670;-71
2023/06/09 07:51:21;;;;;;;8.65;6.45;;;;;;;17.69;100.00;97443.41;1706889;75;930583;-75
2023/06/09 07:53:52;;;;;;;5.30;4.80;;;;;;;18.05;100.00;97441.03;1674133;75;2982822;-73
2023/06/09 07:56:23;;;;;;;5.80;5.10;;;;;;;18.15;100.00;97446.16;1708842;75;677615;-74
2023/06/09 07:58:53;;;;;;;5.90;5.30;;;;;;;18.20;100.00;97440.50;1702382;75;686518;-71
2023/06/09 08:01:26;;;;;;;4.80;4.40;;;;;;;18.30;100.00;97446.38;1709992;75;668918;-74
2023/06/09 08:03:57;;;;;;;4.25;3.55;;;;;;;18.39;100.00;97442.44;1650308;75;5012696;-74
2023/06/09 08:06:28;;;;;;;3.70;3.40;;;;;;;18.43;100.00;97449.13;1709545;75;682873;-75
2023/06/09 08:08:58;;;;;;;4.10;3.70;;;;;;;18.60;100.00;97446.03;1702026;75;681713;-76
2023/06/09 08:11:28;;;;;;;4.65;3.85;;;;;;;18.97;100.00;97438.69;1695451;75;1920380;-73
2023/06/09 08:13:59;;;;;;;4.10;3.70;;;;;;;19.01;100.00;97441.16;1702027;75;679823;-72
2023/06/09 08:16:33;;;;;;;4.20;3.80;;;;;;;19.32;100.00;97442.94;1709327;75;674877;-73
2023/06/09 08:19:03;;;;;;;5.45;3.90;;;;;;;19.39;100.00;97449.13;1702242;75;674236;-70
2023/06/09 08:21:33;;;;;;;5.20;4.50;;;;;;;19.03;100.00;97441.38;1709543;75;689319;-74
2023/06/09 08:24:04;;;;;;;5.20;4.40;;;;;;;19.43;100.00;97441.19;1700661;75;727879;-74
2023/06/09 08:26:34;;;;;;;4.45;3.95;;;;;;;19.73;100.00;97441.47;1707991;75;817556;-71
2023/06/09 08:29:06;;;;;;;4.25;3.85;;;;;;;19.66;100.00;97446.94;1701249;75;720150;-71
2023/06/09 08:31:39;;;;;;;4.00;3.60;;;;;;;19.72;100.00;97439.22;1708759;75;811092;-73
2023/06/09 08:34:10;;;;;;;4.50;4.10;;;;;;;19.73;100.00;97432.41;1700613;75;733965;-70
2023/06/09 08:36:40;;;;;;;4.25;3.85;;;;;;;19.94;100.00;97429.56;1707386;75;826108;-73
2023/06/09 08:39:10;;;;;;;3.90;3.55;;;;;;;20.00;100.00;97425.34;1700563;75;745290;-71
2023/06/09 08:41:42;;;;;;;3.80;3.40;;;;;;;20.14;100.00;97423.22;1708940;75;694727;-71
2023/06/09 08:44:13;;;;;;;3.10;2.80;;;;;;;20.32;100.00;97424.25;1700163;75;756242;-74
2023/06/09 08:46:49;;;;;;;4.65;3.25;;;;;;;20.39;100.00;97417.22;1708977;75;680683;-74
2023/06/09 08:49:21;;;;;;;4.85;3.50;;;;;;;20.41;100.00;97420.94;1700850;75;731982;-74
2023/06/09 08:51:52;;;;;;;3.90;3.20;;;;;;;20.45;100.00;97417.09;1658053;75;4953604;-73
2023/06/09 08:54:22;;;;;;;3.75;3.05;;;;;;;20.36;100.00;97416.31;1699848;75;763748;-71
2023/06/09 08:56:53;;;;;;;2.80;2.60;;;;;;;20.43;100.00;97410.03;1708979;75;678361;-70
2023/06/09 08:59:25;;;;;;;3.10;2.50;;;;;;;20.69;100.00;97407.56;1697744;75;875359;-72
2023/06/09 09:01:58;;;;;;;3.20;2.90;;;;;;;20.80;100.00;97410.00;1709957;75;672634;-72
2023/06/09 09:04:28;;;;;;;5.80;3.10;;;;;;;20.73;100.00;97403.13;1698132;75;966289;-76
2023/06/09 09:06:59;;;;;;;2.70;2.50;;;;;;;21.04;100.00;97395.59;1708944;75;680016;-73
2023/06/09 09:09:29;;;;;;;2.70;2.50;;;;;;;21.08;100.00;97402.84;1697233;75;971295;-73
2023/06/09 09:12:02;;;;;;;3.10;2.80;;;;;;;21.01;100.00;97404.31;1709229;75;700582;-73
2023/06/09 09:14:32;;;;;;;2.60;2.40;;;;;;;21.31;100.00;97398.06;1697723;75;900939;-72
2023/06/09 09:17:13;;;;;;;2.20;1.90;;;;;;;21.58;100.00;97392.88;1708614;75;680422;-72
2023/06/09 09:19:48;;;;;;;3.20;2.90;;;;;;;21.04;100.00;97392.06;1700377;75;741069;-74
2023/06/09 09:22:19;;;;;;;2.95;2.65;;;;;;;21.46;100.00;97389.00;1707832;75;674484;-72
2023/06/09 09:24:51;;;;;;;2.70;2.10;;;;;;;21.73;100.00;97380.25;1709588;75;675205;-73
2023/06/09 09:27:26;;;;;;;2.70;2.50;;;;;;;21.87;100.00;97381.53;1700633;75;686123;-73
2023/06/09 09:29:56;;;;;;;3.00;2.40;;;;;;;22.16;100.00;97386.84;1709403;75;684070;-70
2023/06/09 09:32:31;;;;;;;2.45;2.20;;;;;;;21.83;96.67;97375.59;1701031;75;689051;-73
2023/06/09 09:35:03;;;;;;;2.20;2.00;;;;;;;22.40;97.44;97380.66;1709014;75;684189;-76
2023/06/09 09:37:35;;;;;;;2.20;1.95;;;;;;;22.77;100.00;97372.66;1698327;67;933516;-75
2023/06/09 09:40:07;;;;;;;2.85;2.20;;;;;;;22.97;95.52;97379.25;1709612;75;673815;-72
2023/06/09 09:42:38;;;;;;;3.00;2.40;;;;;;;22.66;86.90;97373.13;1700618;75;679102;-74
2023/06/09 09:45:09;;;;;;;2.60;2.30;;;;;;;22.85;90.96;97373.38;1709369;75;675164;-73
2023/06/09 09:47:42;;;;;;;2.40;2.00;;;;;;;22.85;90.48;97373.38;1700527;75;681251;-75
2023/06/09 09:50:13;;;;;;;1.90;1.75;;;;;;;22.83;93.46;97366.88;1710052;75;681304;-73
2023/06/09 09:52:43;;;;;;;1.90;1.80;;;;;;;23.01;93.19;97364.94;1700479;75;751125;-74
2023/06/09 09:55:16;;;;;;;1.60;1.50;;;;;;;22.90;84.36;97366.84;1709636;75;673876;-72
2023/06/09 09:57:48;;;;;;;1.95;1.80;;;;;;;22.93;82.27;97368.47;1699960;75;752706;-76
2023/06/09 10:00:19;;;;;;;1.50;1.40;;;;;;;23.11;80.15;97357.41;1710090;75;674920;-71
2023/06/09 10:02:59;;;;;;;1.70;1.60;;;;;;;23.27;77.93;97358.03;1696718;75;979678;-73
2023/06/09 10:05:33;;;;;;;2.30;1.90;;;;;;;23.09;81.12;97358.00;1701184;75;711685;-71
2023/06/09 10:08:06;;;;;;;2.60;1.80;;;;;;;23.32;78.29;97354.28;1707447;75;733191;-72
2023/06/09 10:10:37;;;;;;;1.90;1.70;;;;;;;23.52;82.06;97355.22;1699714;75;830818;-74
2023/06/09 10:13:07;;;;;;;2.40;2.00;;;;;;;23.66;79.12;97359.19;1708845;75;692577;-73
2023/06/09 10:15:38;;;;;;;1.90;1.80;;;;;;;23.66;78.28;97350.81;1700997;75;682825;-72
2023/06/09 10:18:13;;;;;;;2.05;1.85;;;;;;;23.69;76.81;97352.47;1708801;75;674913;-72
2023/06/09 10:20:48;;;;;;;1.70;1.60;;;;;;;23.75;74.79;97346.66;1701010;75;694245;-73
2023/06/09 10:23:18;;;;;;;4.00;2.00;;;;;;;23.35;74.17;97350.34;1708826;75;684973;-75
2023/06/09 10:25:50;;;;;;;2.90;2.15;;;;;;;23.43;73.82;97342.63;1700652;75;683430;-71
2023/06/09 10:28:22;;;;;;;2.00;1.80;;;;;;;23.44;73.24;97343.38;1708122;75;809719;-73
2023/06/09 10:30:53;;;;;;;2.05;1.85;;;;;;;23.56;74.36;97341.59;1700841;75;742998;-73
2023/06/09 10:33:30;;;;;;;1.70;1.60;;;;;;;24.03;74.09;97337.78;1706283;75;934496;-71
2023/06/09 10:36:03;;;;;;;2.10;1.90;;;;;;;23.93;76.09;97330.63;1699713;75;737974;-73
2023/06/09 10:38:45;;;;;;;1.75;1.65;;;;;;;24.17;73.90;97331.84;1709254;75;677732;-73
2023/06/09 10:41:20;;;;;;;2.20;1.70;;;;;;;24.12;75.50;97330.03;1700275;75;746273;-74
2023/06/09 10:44:19;;;;;;;2.60;1.90;;;;;;;24.05;74.40;97337.19;1709674;75;673260;-73
2023/06/09 10:46:53;;;;;;;2.10;1.90;;;;;;;24.03;69.42;97329.41;1700233;75;749340;-72
2023/06/09 10:49:42;;;;;;;1.70;1.60;;;;;;;24.39;71.07;97322.44;1710061;75;677067;-73
2023/06/09 10:52:45;;;;;;;1.60;1.50;;;;;;;24.44;69.94;97320.72;1700531;75;739949;-72
2023/06/09 10:55:17;;;;;;;1.75;1.60;;;;;;;24.67;67.92;97314.81;1687420;75;1798919;-76
2023/06/09 10:57:47;;;;;;;1.55;1.45;;;;;;;24.52;65.74;97312.22;1708846;75;686893;-74
2023/06/09 11:00:18;;;;;;;2.35;1.70;;;;;;;24.19;65.20;97301.97;1701088;75;740928;-71
2023/06/09 11:02:53;;;;;;;2.80;1.90;;;;;;;24.49;64.79;97299.41;1709216;75;697808;-76
2023/06/09 11:05:45;;;;;;;1.60;1.50;;;;;;;24.57;66.47;97302.81;1700372;75;742970;-74
2023/06/09 11:08:15;;;;;;;2.10;1.80;;;;;;;24.86;63.29;97300.91;1701585;75;671862;-74
2023/06/09 11:10:46;;;;;;;1.70;1.60;;;;;;;24.58;65.01;97304.28;1709519;75;676686;-73
2023/06/09 11:13:42;;;;;;;2.00;1.80;;;;;;;25.29;63.72;97292.22;1699923;75;805692;-75
2023/06/09 11:16:13;;;;;;;1.90;1.70;;;;;;;25.30;64.55;97290.88;1700981;75;714408;-73
2023/06/09 11:18:43;;;;;;;3.20;2.10;;;;;;;25.35;64.89;97292.69;1708962;75;747855;-70
2023/06/09 11:21:25;;;;;;;2.50;2.00;;;;;;;25.36;64.41;97288.56;1687910;75;1876829;-73
2023/06/09 11:24:13;;;;;;;2.30;2.10;;;;;;;25.13;63.92;97283.31;1710173;75;677406;-74
2023/06/09 11:26:43;;;;;;;3.80;2.10;;;;;;;24.92;62.38;97295.03;1701171;75;755037;-72
2023/06/09 11:29:22;;;;;;;3.05;1.85;;;;;;;25.45;61.32;97289.91;1710536;75;678653;-71
2023/06/09 11:31:53;;;;;;;1.70;1.60;;;;;;;25.19;60.89;97280.28;1698861;75;762549;-73
2023/06/09 11:35:06;;;;;;;1.70;1.45;;;;;;;25.35;61.31;97270.28;1707486;75;673123;-73
2023/06/09 11:37:40;;;;;;;2.25;1.90;;;;;;;25.13;60.13;97262.97;1700192;75;757434;-74
2023/06/09 11:40:13;;;;;;;2.40;2.10;;;;;;;25.22;62.87;97249.00;1709552;75;676523;-76